Fernwood, Washington
Current Conditions -  °F | °C
As of 12:35 AM on Friday 28 Nov 2014 (Local Time) from KPWT Reporting Station
Overcast Overcast  
Wind Chill: 52°   Ceiling: 1300
Heat Index: 52°   Visibility: 10mi
Dew Point: 50°   Wind: 18mph
Humidity: 94%   Direction: 180°S
Pressure: 29.68"   Gusts: 26mph
Location:  47.5378°N, 122.589°W
Report Text: KPWT 280835Z AUTO 18016G23KT 10SM SCT005 OVC013 11/10 A2968 RMK AO1 P0008
Loading
Personal Weather Stations






























Interactive Weather Map New forecast layout! Learn more

10-Day Weather Forecast

Advertisements
Track Severe Weather on mobile